sensor_id;sensor_type;location;lat;lon;timestamp;temperature;humidity
4411;DHT22;2218;51.408;7.208;2023-03-01T00:01:40;17.60;24.00
4411;DHT22;2218;51.408;7.208;2023-03-01T00:04:07;17.60;24.00
4411;DHT22;2218;51.408;7.208;2023-03-01T00:06:34;17.60;24.00
4411;DHT22;2218;51.408;7.208;2023-03-01T00:09:02;17.60;24.00
4411;DHT22;2218;51.408;7.208;2023-03-01T00:11:31;17.50;24.00
4411;DHT22;2218;51.408;7.208;2023-03-01T00:14:01;17.50;24.00
4411;DHT22;2218;51.408;7.208;2023-03-01T00:16:32;17.50;24.00
4411;DHT22;2218;51.408;7.208;2023-03-01T00:19:00;17.50;24.00
4411;DHT22;2218;51.408;7.208;2023-03-01T00:21:27;17.50;24.00
4411;DHT22;2218;51.408;7.208;2023-03-01T00:23:55;17.50;24.10
4411;DHT22;2218;51.408;7.208;2023-03-01T00:26:24;17.50;24.10
4411;DHT22;2218;51.408;7.208;2023-03-01T00:28:53;17.50;24.10
4411;DHT22;2218;51.408;7.208;2023-03-01T00:31:23;17.50;24.10
4411;DHT22;2218;51.408;7.208;2023-03-01T00:33:53;17.40;24.00
4411;DHT22;2218;51.408;7.208;2023-03-01T00:36:23;17.50;24.10
4411;DHT22;2218;51.408;7.208;2023-03-01T00:38:51;17.40;24.10
4411;DHT22;2218;51.408;7.208;2023-03-01T00:41:19;17.40;24.10
4411;DHT22;2218;51.408;7.208;2023-03-01T00:43:48;17.40;24.10
4411;DHT22;2218;51.408;7.208;2023-03-01T00:46:19;17.40;24.10
4411;DHT22;2218;51.408;7.208;2023-03-01T00:48:48;17.40;24.60
4411;DHT22;2218;51.408;7.208;2023-03-01T00:51:17;17.40;24.20
4411;DHT22;2218;51.408;7.208;2023-03-01T00:53:46;17.40;24.20
4411;DHT22;2218;51.408;7.208;2023-03-01T00:56:16;17.40;24.10
4411;DHT22;2218;51.408;7.208;2023-03-01T00:58:43;17.40;24.20
4411;DHT22;2218;51.408;7.208;2023-03-01T01:01:12;17.40;24.20
4411;DHT22;2218;51.408;7.208;2023-03-01T01:03:46;17.30;24.20
4411;DHT22;2218;51.408;7.208;2023-03-01T01:06:16;17.30;24.20
4411;DHT22;2218;51.408;7.208;2023-03-01T01:08:44;17.30;24.20
4411;DHT22;2218;51.408;7.208;2023-03-01T01:11:12;17.30;24.20
4411;DHT22;2218;51.408;7.208;2023-03-01T01:13:40;17.30;24.20
4411;DHT22;2218;51.408;7.208;2023-03-01T01:16:08;17.30;24.20
4411;DHT22;2218;51.408;7.208;2023-03-01T01:18:35;17.30;24.30
4411;DHT22;2218;51.408;7.208;2023-03-01T01:21:08;17.30;24.30
4411;DHT22;2218;51.408;7.208;2023-03-01T01:23:37;17.30;24.30
4411;DHT22;2218;51.408;7.208;2023-03-01T01:26:06;17.30;24.20
4411;DHT22;2218;51.408;7.208;2023-03-01T01:28:34;17.30;24.20
4411;DHT22;2218;51.408;7.208;2023-03-01T01:31:02;17.30;24.30
4411;DHT22;2218;51.408;7.208;2023-03-01T01:33:29;17.30;24.30
4411;DHT22;2218;51.408;7.208;2023-03-01T01:35:57;17.20;24.20
4411;DHT22;2218;51.408;7.208;2023-03-01T01:38:25;17.20;24.20
4411;DHT22;2218;51.408;7.208;2023-03-01T01:40:53;17.20;24.30
4411;DHT22;2218;51.408;7.208;2023-03-01T01:43:22;17.20;24.30
4411;DHT22;2218;51.408;7.208;2023-03-01T01:45:52;17.20;24.30
4411;DHT22;2218;51.408;7.208;2023-03-01T01:48:24;17.20;24.30
4411;DHT22;2218;51.408;7.208;2023-03-01T01:51:08;17.20;24.30
4411;DHT22;2218;51.408;7.208;2023-03-01T01:53:40;17.30;24.30
4411;DHT22;2218;51.408;7.208;2023-03-01T01:56:10;17.30;24.20
4411;DHT22;2218;51.408;7.208;2023-03-01T01:58:42;17.30;24.20
4411;DHT22;2218;51.408;7.208;2023-03-01T02:01:10;17.30;24.10
4411;DHT22;2218;51.408;7.208;2023-03-01T02:03:39;17.40;24.00
4411;DHT22;2218;51.408;7.208;2023-03-01T02:06:13;17.40;24.00
4411;DHT22;2218;51.408;7.208;2023-03-01T02:08:49;17.40;24.10
4411;DHT22;2218;51.408;7.208;2023-03-01T02:11:20;17.50;24.20
4411;DHT22;2218;51.408;7.208;2023-03-01T02:13:48;17.40;24.00
4411;DHT22;2218;51.408;7.208;2023-03-01T02:16:16;17.50;24.00
4411;DHT22;2218;51.408;7.208;2023-03-01T02:18:44;17.50;24.10
4411;DHT22;2218;51.408;7.208;2023-03-01T02:21:21;17.50;24.10
4411;DHT22;2218;51.408;7.208;2023-03-01T02:24:04;17.50;24.10
4411;DHT22;2218;51.408;7.208;2023-03-01T02:26:45;17.50;24.10
4411;DHT22;2218;51.408;7.208;2023-03-01T02:29:16;17.50;24.10
4411;DHT22;2218;51.408;7.208;2023-03-01T02:31:43;17.60;24.00
4411;DHT22;2218;51.408;7.208;2023-03-01T02:34:15;17.60;24.00
4411;DHT22;2218;51.408;7.208;2023-03-01T02:36:47;17.60;24.10
4411;DHT22;2218;51.408;7.208;2023-03-01T02:39:19;17.60;24.00
4411;DHT22;2218;51.408;7.208;2023-03-01T02:41:54;17.60;24.00
4411;DHT22;2218;51.408;7.208;2023-03-01T02:44:24;17.60;24.00
4411;DHT22;2218;51.408;7.208;2023-03-01T02:46:52;17.60;24.00
4411;DHT22;2218;51.408;7.208;2023-03-01T02:49:24;17.60;24.00
4411;DHT22;2218;51.408;7.208;2023-03-01T02:52:18;17.60;24.00
4411;DHT22;2218;51.408;7.208;2023-03-01T02:55:01;17.60;24.00
4411;DHT22;2218;51.408;7.208;2023-03-01T02:57:34;17.60;23.90
4411;DHT22;2218;51.408;7.208;2023-03-01T03:00:07;17.60;23.90
4411;DHT22;2218;51.408;7.208;2023-03-01T03:02:45;17.60;24.00
4411;DHT22;2218;51.408;7.208;2023-03-01T03:05:19;17.60;23.90
4411;DHT22;2218;51.408;7.208;2023-03-01T03:07:51;17.70;24.00
4411;DHT22;2218;51.408;7.208;2023-03-01T03:10:21;17.70;24.00
4411;DHT22;2218;51.408;7.208;2023-03-01T03:12:50;17.70;24.00
4411;DHT22;2218;51.408;7.208;2023-03-01T03:15:20;17.70;24.00
4411;DHT22;2218;51.408;7.208;2023-03-01T03:17:48;17.70;24.00
4411;DHT22;2218;51.408;7.208;2023-03-01T03:20:18;17.70;24.00
4411;DHT22;2218;51.408;7.208;2023-03-01T03:22:50;17.70;24.00
4411;DHT22;2218;51.408;7.208;2023-03-01T03:25:20;17.70;23.90
4411;DHT22;2218;51.408;7.208;2023-03-01T03:27:50;17.70;24.00
4411;DHT22;2218;51.408;7.208;2023-03-01T03:30:25;17.70;23.90
4411;DHT22;2218;51.408;7.208;2023-03-01T03:32:56;17.70;24.00
4411;DHT22;2218;51.408;7.208;2023-03-01T03:35:26;17.70;23.90
4411;DHT22;2218;51.408;7.208;2023-03-01T03:37:56;17.70;23.90
4411;DHT22;2218;51.408;7.208;2023-03-01T03:40:33;17.70;24.30
4411;DHT22;2218;51.408;7.208;2023-03-01T03:43:02;17.70;23.90
4411;DHT22;2218;51.408;7.208;2023-03-01T03:45:30;17.70;23.90
4411;DHT22;2218;51.408;7.208;2023-03-01T03:47:58;17.70;23.90
4411;DHT22;2218;51.408;7.208;2023-03-01T03:50:26;17.70;23.90
4411;DHT22;2218;51.408;7.208;2023-03-01T03:52:53;17.70;23.90
4411;DHT22;2218;51.408;7.208;2023-03-01T03:55:19;17.70;23.90
4411;DHT22;2218;51.408;7.208;2023-03-01T03:57:47;17.70;23.90
4411;DHT22;2218;51.408;7.208;2023-03-01T04:00:18;17.70;23.90
4411;DHT22;2218;51.408;7.208;2023-03-01T04:02:48;17.70;23.80
4411;DHT22;2218;51.408;7.208;2023-03-01T04:05:17;17.80;23.90
4411;DHT22;2218;51.408;7.208;2023-03-01T04:07:45;17.70;23.80
4411;DHT22;2218;51.408;7.208;2023-03-01T04:10:14;17.70;23.80
4411;DHT22;2218;51.408;7.208;2023-03-01T04:12:42;17.70;23.80
4411;DHT22;2218;51.408;7.208;2023-03-01T04:15:11;17.70;23.80
4411;DHT22;2218;51.408;7.208;2023-03-01T04:17:41;17.70;23.80
4411;DHT22;2218;51.408;7.208;2023-03-01T04:20:13;17.70;23.80
4411;DHT22;2218;51.408;7.208;2023-03-01T04:22:43;17.70;23.80
4411;DHT22;2218;51.408;7.208;2023-03-01T04:25:12;17.70;23.80
4411;DHT22;2218;51.408;7.208;2023-03-01T04:27:40;17.80;23.80
4411;DHT22;2218;51.408;7.208;2023-03-01T04:30:08;17.80;23.80
4411;DHT22;2218;51.408;7.208;2023-03-01T04:32:36;17.70;23.80
4411;DHT22;2218;51.408;7.208;2023-03-01T04:35:04;17.70;23.80
4411;DHT22;2218;51.408;7.208;2023-03-01T04:37:32;17.70;23.80
4411;DHT22;2218;51.408;7.208;2023-03-01T04:40:00;17.80;23.80
4411;DHT22;2218;51.408;7.208;2023-03-01T04:42:33;17.70;23.80
4411;DHT22;2218;51.408;7.208;2023-03-01T04:45:00;17.70;23.80
4411;DHT22;2218;51.408;7.208;2023-03-01T04:47:27;17.80;23.80
4411;DHT22;2218;51.408;7.208;2023-03-01T04:49:54;17.80;23.80
4411;DHT22;2218;51.408;7.208;2023-03-01T04:52:20;17.80;23.70
4411;DHT22;2218;51.408;7.208;2023-03-01T04:54:50;17.80;23.80
4411;DHT22;2218;51.408;7.208;2023-03-01T04:57:17;17.80;23.70
4411;DHT22;2218;51.408;7.208;2023-03-01T04:59:44;17.80;23.70
4411;DHT22;2218;51.408;7.208;2023-03-01T05:02:11;17.80;23.70
4411;DHT22;2218;51.408;7.208;2023-03-01T05:04:38;17.80;23.70
4411;DHT22;2218;51.408;7.208;2023-03-01T05:07:05;17.80;23.80
4411;DHT22;2218;51.408;7.208;2023-03-01T05:09:31;17.80;23.70
4411;DHT22;2218;51.408;7.208;2023-03-01T05:12:00;17.80;23.70
4411;DHT22;2218;51.408;7.208;2023-03-01T05:14:27;17.80;23.60
4411;DHT22;2218;51.408;7.208;2023-03-01T05:16:54;17.80;23.60
4411;DHT22;2218;51.408;7.208;2023-03-01T05:19:21;17.90;23.60
4411;DHT22;2218;51.408;7.208;2023-03-01T05:21:48;17.90;23.60
4411;DHT22;2218;51.408;7.208;2023-03-01T05:24:31;17.90;23.50
4411;DHT22;2218;51.408;7.208;2023-03-01T05:27:02;18.00;23.50
4411;DHT22;2218;51.408;7.208;2023-03-01T05:29:31;18.00;23.50
4411;DHT22;2218;51.408;7.208;2023-03-01T05:32:02;18.00;23.40
4411;DHT22;2218;51.408;7.208;2023-03-01T05:34:30;18.00;23.40
4411;DHT22;2218;51.408;7.208;2023-03-01T05:36:59;18.10;23.50
4411;DHT22;2218;51.408;7.208;2023-03-01T05:39:28;18.10;23.40
4411;DHT22;2218;51.408;7.208;2023-03-01T05:41:58;18.10;23.40
4411;DHT22;2218;51.408;7.208;2023-03-01T05:44:28;18.10;23.80
4411;DHT22;2218;51.408;7.208;2023-03-01T05:46:56;18.10;23.40
4411;DHT22;2218;51.408;7.208;2023-03-01T05:49:23;18.10;23.30
4411;DHT22;2218;51.408;7.208;2023-03-01T05:51:52;18.10;23.30
4411;DHT22;2218;51.408;7.208;2023-03-01T05:54:20;18.10;23.30
4411;DHT22;2218;51.408;7.208;2023-03-01T05:56:48;18.10;23.30
4411;DHT22;2218;51.408;7.208;2023-03-01T05:59:15;18.10;23.30
4411;DHT22;2218;51.408;7.208;2023-03-01T06:01:43;18.10;23.30
4411;DHT22;2218;51.408;7.208;2023-03-01T06:04:10;18.10;23.30
4411;DHT22;2218;51.408;7.208;2023-03-01T06:06:37;18.10;23.30
4411;DHT22;2218;51.408;7.208;2023-03-01T06:09:05;18.10;23.40
4411;DHT22;2218;51.408;7.208;2023-03-01T06:11:35;18.10;23.40
4411;DHT22;2218;51.408;7.208;2023-03-01T06:14:03;18.10;23.30
4411;DHT22;2218;51.408;7.208;2023-03-01T06:16:33;18.00;23.20
4411;DHT22;2218;51.408;7.208;2023-03-01T06:19:01;18.10;23.30
4411;DHT22;2218;51.408;7.208;2023-03-01T06:21:28;18.10;23.30
4411;DHT22;2218;51.408;7.208;2023-03-01T06:23:55;18.10;23.20
4411;DHT22;2218;51.408;7.208;2023-03-01T06:26:22;18.10;23.20
4411;DHT22;2218;51.408;7.208;2023-03-01T06:28:49;18.10;23.20
4411;DHT22;2218;51.408;7.208;2023-03-01T06:31:16;18.10;23.20
4411;DHT22;2218;51.408;7.208;2023-03-01T06:33:43;18.10;23.20
4411;DHT22;2218;51.408;7.208;2023-03-01T06:36:11;18.20;23.20
4411;DHT22;2218;51.408;7.208;2023-03-01T06:38:38;18.20;23.20
4411;DHT22;2218;51.408;7.208;2023-03-01T06:41:06;18.20;23.20
4411;DHT22;2218;51.408;7.208;2023-03-01T06:43:33;18.20;23.60
4411;DHT22;2218;51.408;7.208;2023-03-01T06:46:02;18.20;23.20
4411;DHT22;2218;51.408;7.208;2023-03-01T06:48:30;18.20;23.20
4411;DHT22;2218;51.408;7.208;2023-03-01T06:50:58;18.20;23.20
4411;DHT22;2218;51.408;7.208;2023-03-01T06:53:27;18.20;23.20
4411;DHT22;2218;51.408;7.208;2023-03-01T06:55:55;18.20;23.20
4411;DHT22;2218;51.408;7.208;2023-03-01T06:58:22;18.30;23.20
4411;DHT22;2218;51.408;7.208;2023-03-01T07:00:49;18.30;23.20
4411;DHT22;2218;51.408;7.208;2023-03-01T07:03:16;18.30;23.20
4411;DHT22;2218;51.408;7.208;2023-03-01T07:05:43;18.30;23.20
4411;DHT22;2218;51.408;7.208;2023-03-01T07:08:11;18.40;23.30
4411;DHT22;2218;51.408;7.208;2023-03-01T07:10:39;18.40;23.20
4411;DHT22;2218;51.408;7.208;2023-03-01T07:13:06;18.40;23.20
4411;DHT22;2218;51.408;7.208;2023-03-01T07:15:33;18.50;23.30
4411;DHT22;2218;51.408;7.208;2023-03-01T07:18:00;18.50;23.30
4411;DHT22;2218;51.408;7.208;2023-03-01T07:20:27;18.50;23.30
4411;DHT22;2218;51.408;7.208;2023-03-01T07:22:55;18.50;23.30
4411;DHT22;2218;51.408;7.208;2023-03-01T07:25:24;18.50;23.30
4411;DHT22;2218;51.408;7.208;2023-03-01T07:27:52;18.60;23.30
4411;DHT22;2218;51.408;7.208;2023-03-01T07:30:20;18.60;23.30
4411;DHT22;2218;51.408;7.208;2023-03-01T07:32:48;18.60;23.30
4411;DHT22;2218;51.408;7.208;2023-03-01T07:35:15;18.60;23.30
4411;DHT22;2218;51.408;7.208;2023-03-01T07:37:42;18.60;23.30
4411;DHT22;2218;51.408;7.208;2023-03-01T07:40:10;18.60;23.30
4411;DHT22;2218;51.408;7.208;2023-03-01T07:42:38;18.70;23.40
4411;DHT22;2218;51.408;7.208;2023-03-01T07:45:07;18.70;23.30
4411;DHT22;2218;51.408;7.208;2023-03-01T07:47:35;18.70;23.40
4411;DHT22;2218;51.408;7.208;2023-03-01T07:50:02;18.70;23.50
4411;DHT22;2218;51.408;7.208;2023-03-01T07:52:30;18.70;23.50
4411;DHT22;2218;51.408;7.208;2023-03-01T07:54:58;18.70;23.60
4411;DHT22;2218;51.408;7.208;2023-03-01T07:57:25;18.70;23.60
4411;DHT22;2218;51.408;7.208;2023-03-01T07:59:51;18.80;23.70
4411;DHT22;2218;51.408;7.208;2023-03-01T08:02:20;18.70;23.70
4411;DHT22;2218;51.408;7.208;2023-03-01T08:04:47;18.70;23.70
4411;DHT22;2218;51.408;7.208;2023-03-01T08:07:14;18.70;23.90
4411;DHT22;2218;51.408;7.208;2023-03-01T08:09:41;18.70;23.90
4411;DHT22;2218;51.408;7.208;2023-03-01T08:12:07;18.70;23.90
4411;DHT22;2218;51.408;7.208;2023-03-01T08:14:34;18.70;24.00
4411;DHT22;2218;51.408;7.208;2023-03-01T08:17:01;18.70;24.00
4411;DHT22;2218;51.408;7.208;2023-03-01T08:19:30;18.70;24.10
4411;DHT22;2218;51.408;7.208;2023-03-01T08:21:58;18.70;24.20
4411;DHT22;2218;51.408;7.208;2023-03-01T08:24:25;18.70;24.20
4411;DHT22;2218;51.408;7.208;2023-03-01T08:26:53;18.70;24.20
4411;DHT22;2218;51.408;7.208;2023-03-01T08:29:20;18.70;24.30
4411;DHT22;2218;51.408;7.208;2023-03-01T08:31:50;18.70;24.30
4411;DHT22;2218;51.408;7.208;2023-03-01T08:34:18;18.70;24.30
4411;DHT22;2218;51.408;7.208;2023-03-01T08:36:46;18.70;24.30
4411;DHT22;2218;51.408;7.208;2023-03-01T08:39:15;18.70;24.40
4411;DHT22;2218;51.408;7.208;2023-03-01T08:41:43;18.70;24.40
4411;DHT22;2218;51.408;7.208;2023-03-01T08:44:12;18.70;24.50
4411;DHT22;2218;51.408;7.208;2023-03-01T08:46:42;18.70;24.60
4411;DHT22;2218;51.408;7.208;2023-03-01T08:49:12;18.70;24.60
4411;DHT22;2218;51.408;7.208;2023-03-01T08:51:42;18.70;24.60
4411;DHT22;2218;51.408;7.208;2023-03-01T08:54:13;18.70;24.60
4411;DHT22;2218;51.408;7.208;2023-03-01T08:56:42;18.70;24.60
4411;DHT22;2218;51.408;7.208;2023-03-01T08:59:09;18.60;24.60
4411;DHT22;2218;51.408;7.208;2023-03-01T09:01:37;18.70;24.30
4411;DHT22;2218;51.408;7.208;2023-03-01T09:04:05;18.70;24.40
4411;DHT22;2218;51.408;7.208;2023-03-01T09:06:33;18.70;24.30
4411;DHT22;2218;51.408;7.208;2023-03-01T09:09:01;18.70;24.10
4411;DHT22;2218;51.408;7.208;2023-03-01T09:11:30;18.70;23.90
4411;DHT22;2218;51.408;7.208;2023-03-01T09:13:57;18.70;23.80
4411;DHT22;2218;51.408;7.208;2023-03-01T09:16:24;18.70;23.80
4411;DHT22;2218;51.408;7.208;2023-03-01T09:18:52;18.70;23.70
4411;DHT22;2218;51.408;7.208;2023-03-01T09:21:22;18.70;23.60
4411;DHT22;2218;51.408;7.208;2023-03-01T09:23:50;18.70;23.70
4411;DHT22;2218;51.408;7.208;2023-03-01T09:26:18;18.70;23.50
4411;DHT22;2218;51.408;7.208;2023-03-01T09:28:49;18.60;23.40
4411;DHT22;2218;51.408;7.208;2023-03-01T09:31:20;18.60;23.40
4411;DHT22;2218;51.408;7.208;2023-03-01T09:33:49;18.60;23.30
4411;DHT22;2218;51.408;7.208;2023-03-01T09:36:19;18.60;23.30
4411;DHT22;2218;51.408;7.208;2023-03-01T09:38:47;18.60;23.20
4411;DHT22;2218;51.408;7.208;2023-03-01T09:41:26;18.60;23.20
4411;DHT22;2218;51.408;7.208;2023-03-01T09:44:13;18.60;23.10
4411;DHT22;2218;51.408;7.208;2023-03-01T09:46:47;18.60;23.10
4411;DHT22;2218;51.408;7.208;2023-03-01T09:49:17;18.60;23.10
4411;DHT22;2218;51.408;7.208;2023-03-01T09:51:54;18.60;23.00
4411;DHT22;2218;51.408;7.208;2023-03-01T09:54:23;18.60;23.00
4411;DHT22;2218;51.408;7.208;2023-03-01T09:57:05;18.50;22.80
4411;DHT22;2218;51.408;7.208;2023-03-01T09:59:49;18.50;22.80
4411;DHT22;2218;51.408;7.208;2023-03-01T10:02:30;18.60;22.80
4411;DHT22;2218;51.408;7.208;2023-03-01T10:05:13;18.50;22.70
4411;DHT22;2218;51.408;7.208;2023-03-01T10:07:54;18.50;22.60
4411;DHT22;2218;51.408;7.208;2023-03-01T10:10:34;18.50;22.60
4411;DHT22;2218;51.408;7.208;2023-03-01T10:13:13;18.60;22.60
4411;DHT22;2218;51.408;7.208;2023-03-01T10:15:49;18.60;22.50
4411;DHT22;2218;51.408;7.208;2023-03-01T10:18:22;18.60;22.40
4411;DHT22;2218;51.408;7.208;2023-03-01T10:20:54;18.60;22.40
4411;DHT22;2218;51.408;7.208;2023-03-01T10:23:24;18.60;22.40
4411;DHT22;2218;51.408;7.208;2023-03-01T10:26:07;18.60;22.40
4411;DHT22;2218;51.408;7.208;2023-03-01T10:28:50;18.60;22.30
4411;DHT22;2218;51.408;7.208;2023-03-01T10:31:37;18.60;22.30
4411;DHT22;2218;51.408;7.208;2023-03-01T10:34:11;18.60;22.40
4411;DHT22;2218;51.408;7.208;2023-03-01T10:36:41;18.60;22.50
4411;DHT22;2218;51.408;7.208;2023-03-01T10:39:17;18.60;22.60
4411;DHT22;2218;51.408;7.208;2023-03-01T10:41:57;18.60;22.60
4411;DHT22;2218;51.408;7.208;2023-03-01T10:44:42;18.60;22.70
4411;DHT22;2218;51.408;7.208;2023-03-01T10:47:17;18.60;22.60
4411;DHT22;2218;51.408;7.208;2023-03-01T10:50:00;18.60;22.60
4411;DHT22;2218;51.408;7.208;2023-03-01T10:52:32;18.60;22.50
4411;DHT22;2218;51.408;7.208;2023-03-01T10:55:04;18.60;22.50
4411;DHT22;2218;51.408;7.208;2023-03-01T10:58:08;18.60;22.50
4411;DHT22;2218;51.408;7.208;2023-03-01T11:00:50;18.60;22.40
4411;DHT22;2218;51.408;7.208;2023-03-01T11:03:22;18.60;22.40
4411;DHT22;2218;51.408;7.208;2023-03-01T11:05:56;18.60;22.30
4411;DHT22;2218;51.408;7.208;2023-03-01T11:08:32;18.60;22.30
4411;DHT22;2218;51.408;7.208;2023-03-01T11:11:18;18.50;22.20
4411;DHT22;2218;51.408;7.208;2023-03-01T11:13:56;18.50;22.20
4411;DHT22;2218;51.408;7.208;2023-03-01T11:16:35;18.50;22.10
4411;DHT22;2218;51.408;7.208;2023-03-01T11:19:15;18.50;22.10
4411;DHT22;2218;51.408;7.208;2023-03-01T11:21:53;18.60;22.10
4411;DHT22;2218;51.408;7.208;2023-03-01T11:24:29;18.50;22.00
4411;DHT22;2218;51.408;7.208;2023-03-01T11:27:03;18.60;22.00
4411;DHT22;2218;51.408;7.208;2023-03-01T11:29:38;18.60;22.00
4411;DHT22;2218;51.408;7.208;2023-03-01T11:32:11;18.60;22.00
4411;DHT22;2218;51.408;7.208;2023-03-01T11:34:44;18.60;22.00
4411;DHT22;2218;51.408;7.208;2023-03-01T11:37:22;18.60;22.00
4411;DHT22;2218;51.408;7.208;2023-03-01T11:40:03;18.60;22.00
4411;DHT22;2218;51.408;7.208;2023-03-01T11:42:48;18.60;22.00
4411;DHT22;2218;51.408;7.208;2023-03-01T11:45:24;18.60;21.90
4411;DHT22;2218;51.408;7.208;2023-03-01T11:48:07;18.60;22.00
4411;DHT22;2218;51.408;7.208;2023-03-01T11:50:56;18.60;21.90
4411;DHT22;2218;51.408;7.208;2023-03-01T11:53:38;18.60;21.90
4411;DHT22;2218;51.408;7.208;2023-03-01T11:56:25;18.60;21.90
4411;DHT22;2218;51.408;7.208;2023-03-01T11:59:22;18.60;21.90
4411;DHT22;2218;51.408;7.208;2023-03-01T12:02:20;18.60;21.90
4411;DHT22;2218;51.408;7.208;2023-03-01T12:05:40;18.60;21.90
4411;DHT22;2218;51.408;7.208;2023-03-01T12:08:25;18.60;21.90
4411;DHT22;2218;51.408;7.208;2023-03-01T12:11:05;18.60;22.40
4411;DHT22;2218;51.408;7.208;2023-03-01T12:14:03;18.60;21.90
4411;DHT22;2218;51.408;7.208;2023-03-01T12:17:07;18.60;21.90
4411;DHT22;2218;51.408;7.208;2023-03-01T12:20:05;18.60;22.00
4411;DHT22;2218;51.408;7.208;2023-03-01T12:22:51;18.60;22.10
4411;DHT22;2218;51.408;7.208;2023-03-01T12:25:34;18.60;22.20
4411;DHT22;2218;51.408;7.208;2023-03-01T12:28:32;18.60;22.30
4411;DHT22;2218;51.408;7.208;2023-03-01T12:31:23;18.60;22.40
4411;DHT22;2218;51.408;7.208;2023-03-01T12:34:15;18.60;22.40
4411;DHT22;2218;51.408;7.208;2023-03-01T12:37:12;18.60;22.50
4411;DHT22;2218;51.408;7.208;2023-03-01T12:39:59;18.60;22.60
4411;DHT22;2218;51.408;7.208;2023-03-01T12:42:48;18.60;22.70
4411;DHT22;2218;51.408;7.208;2023-03-01T12:45:40;18.60;22.70
4411;DHT22;2218;51.408;7.208;2023-03-01T12:48:26;18.60;22.80
4411;DHT22;2218;51.408;7.208;2023-03-01T12:51:04;18.60;22.90
4411;DHT22;2218;51.408;7.208;2023-03-01T12:53:39;18.60;23.00
4411;DHT22;2218;51.408;7.208;2023-03-01T12:56:10;18.60;23.00
4411;DHT22;2218;51.408;7.208;2023-03-01T12:58:51;18.60;23.00
4411;DHT22;2218;51.408;7.208;2023-03-01T13:01:36;18.70;23.20
4411;DHT22;2218;51.408;7.208;2023-03-01T13:04:25;18.70;23.20
4411;DHT22;2218;51.408;7.208;2023-03-01T13:07:11;18.70;23.30
4411;DHT22;2218;51.408;7.208;2023-03-01T13:09:55;18.70;23.30
4411;DHT22;2218;51.408;7.208;2023-03-01T13:12:46;18.70;23.30
4411;DHT22;2218;51.408;7.208;2023-03-01T13:15:33;18.60;23.40
4411;DHT22;2218;51.408;7.208;2023-03-01T13:18:03;18.70;23.50
4411;DHT22;2218;51.408;7.208;2023-03-01T13:20:51;18.70;23.50
4411;DHT22;2218;51.408;7.208;2023-03-01T13:23:26;18.70;23.60
4411;DHT22;2218;51.408;7.208;2023-03-01T13:26:03;18.70;23.60
4411;DHT22;2218;51.408;7.208;2023-03-01T13:28:53;18.60;23.60
4411;DHT22;2218;51.408;7.208;2023-03-01T13:32:00;18.60;23.60
4411;DHT22;2218;51.408;7.208;2023-03-01T13:34:57;18.60;23.70
4411;DHT22;2218;51.408;7.208;2023-03-01T13:37:35;18.70;23.80
4411;DHT22;2218;51.408;7.208;2023-03-01T13:43:28;18.60;23.80
4411;DHT22;2218;51.408;7.208;2023-03-01T13:45:57;18.70;23.90
4411;DHT22;2218;51.408;7.208;2023-03-01T13:48:28;18.70;24.00
4411;DHT22;2218;51.408;7.208;2023-03-01T13:50:59;18.60;23.90
4411;DHT22;2218;51.408;7.208;2023-03-01T13:53:32;18.70;24.00
4411;DHT22;2218;51.408;7.208;2023-03-01T13:56:06;18.60;23.90
4411;DHT22;2218;51.408;7.208;2023-03-01T13:58:46;18.70;24.00
4411;DHT22;2218;51.408;7.208;2023-03-01T14:01:23;18.60;23.90
4411;DHT22;2218;51.408;7.208;2023-03-01T14:03:54;18.60;23.90
4411;DHT22;2218;51.408;7.208;2023-03-01T14:06:23;18.60;23.90
4411;DHT22;2218;51.408;7.208;2023-03-01T14:09:00;18.60;24.00
4411;DHT22;2218;51.408;7.208;2023-03-01T14:12:03;18.70;23.90
4411;DHT22;2218;51.408;7.208;2023-03-01T14:14:46;18.70;23.90
4411;DHT22;2218;51.408;7.208;2023-03-01T14:17:34;18.70;23.90
4411;DHT22;2218;51.408;7.208;2023-03-01T14:20:17;18.70;23.90
4411;DHT22;2218;51.408;7.208;2023-03-01T14:22:46;18.70;23.90
4411;DHT22;2218;51.408;7.208;2023-03-01T14:25:24;18.70;23.90
4411;DHT22;2218;51.408;7.208;2023-03-01T14:27:58;18.70;23.90
4411;DHT22;2218;51.408;7.208;2023-03-01T14:30:34;18.70;23.90
4411;DHT22;2218;51.408;7.208;2023-03-01T14:33:05;18.70;23.90
4411;DHT22;2218;51.408;7.208;2023-03-01T14:35:52;18.70;23.80
4411;DHT22;2218;51.408;7.208;2023-03-01T14:38:22;18.70;23.80
4411;DHT22;2218;51.408;7.208;2023-03-01T14:40:58;18.70;23.80
4411;DHT22;2218;51.408;7.208;2023-03-01T14:43:29;18.70;23.80
4411;DHT22;2218;51.408;7.208;2023-03-01T14:45:57;18.70;23.80
4411;DHT22;2218;51.408;7.208;2023-03-01T14:48:25;18.70;23.80
4411;DHT22;2218;51.408;7.208;2023-03-01T14:50:56;18.70;23.80
4411;DHT22;2218;51.408;7.208;2023-03-01T14:53:27;18.70;23.80
4411;DHT22;2218;51.408;7.208;2023-03-01T14:55:59;18.70;23.80
4411;DHT22;2218;51.408;7.208;2023-03-01T14:58:28;18.70;23.70
4411;DHT22;2218;51.408;7.208;2023-03-01T15:00:57;18.60;23.70
4411;DHT22;2218;51.408;7.208;2023-03-01T15:03:30;18.70;23.70
4411;DHT22;2218;51.408;7.208;2023-03-01T15:06:02;18.60;23.70
4411;DHT22;2218;51.408;7.208;2023-03-01T15:08:31;18.60;23.70
4411;DHT22;2218;51.408;7.208;2023-03-01T15:11:01;18.70;23.70
4411;DHT22;2218;51.408;7.208;2023-03-01T15:13:31;18.70;23.70
4411;DHT22;2218;51.408;7.208;2023-03-01T15:16:06;18.70;23.70
4411;DHT22;2218;51.408;7.208;2023-03-01T15:18:36;18.60;23.60
4411;DHT22;2218;51.408;7.208;2023-03-01T15:21:16;18.60;23.60
4411;DHT22;2218;51.408;7.208;2023-03-01T15:23:50;18.70;23.70
4411;DHT22;2218;51.408;7.208;2023-03-01T15:26:24;18.70;23.70
4411;DHT22;2218;51.408;7.208;2023-03-01T15:28:56;18.70;23.70
4411;DHT22;2218;51.408;7.208;2023-03-01T15:31:26;18.70;23.70
4411;DHT22;2218;51.408;7.208;2023-03-01T15:34:09;18.70;23.60
4411;DHT22;2218;51.408;7.208;2023-03-01T15:36:42;18.60;23.60
4411;DHT22;2218;51.408;7.208;2023-03-01T15:39:31;18.60;23.60
4411;DHT22;2218;51.408;7.208;2023-03-01T15:42:03;18.60;23.50
4411;DHT22;2218;51.408;7.208;2023-03-01T15:44:34;18.70;23.60
4411;DHT22;2218;51.408;7.208;2023-03-01T15:47:06;18.70;23.60
4411;DHT22;2218;51.408;7.208;2023-03-01T15:49:52;18.70;23.60
4411;DHT22;2218;51.408;7.208;2023-03-01T15:52:24;18.70;23.60
4411;DHT22;2218;51.408;7.208;2023-03-01T15:54:56;18.70;23.50
4411;DHT22;2218;51.408;7.208;2023-03-01T15:57:25;18.70;23.50
4411;DHT22;2218;51.408;7.208;2023-03-01T15:59:53;18.70;23.50
4411;DHT22;2218;51.408;7.208;2023-03-01T16:02:20;18.70;23.50
4411;DHT22;2218;51.408;7.208;2023-03-01T16:04:48;18.70;23.50
4411;DHT22;2218;51.408;7.208;2023-03-01T16:07:15;18.70;23.50
4411;DHT22;2218;51.408;7.208;2023-03-01T16:09:44;18.70;23.50
4411;DHT22;2218;51.408;7.208;2023-03-01T16:12:14;18.60;23.40
4411;DHT22;2218;51.408;7.208;2023-03-01T16:14:43;18.70;23.50
4411;DHT22;2218;51.408;7.208;2023-03-01T16:17:09;18.70;23.50
4411;DHT22;2218;51.408;7.208;2023-03-01T16:19:36;18.60;23.50
4411;DHT22;2218;51.408;7.208;2023-03-01T16:22:04;18.70;23.50
4411;DHT22;2218;51.408;7.208;2023-03-01T16:24:31;18.60;23.50
4411;DHT22;2218;51.408;7.208;2023-03-01T16:26:59;18.60;23.50
4411;DHT22;2218;51.408;7.208;2023-03-01T16:29:26;18.60;23.50
4411;DHT22;2218;51.408;7.208;2023-03-01T16:31:54;18.60;23.50
4411;DHT22;2218;51.408;7.208;2023-03-01T16:34:21;18.60;23.50
4411;DHT22;2218;51.408;7.208;2023-03-01T16:36:48;18.60;23.50
4411;DHT22;2218;51.408;7.208;2023-03-01T16:39:15;18.60;23.50
4411;DHT22;2218;51.408;7.208;2023-03-01T16:41:42;18.60;23.50